sensor_id;sensor_type;location;lat;lon;timestamp;pressure;altitude;pressure_sealevel;temperature;humidity
3082;BME280;1551;51.046;7.010;2023-05-29T00:00:36;101325.75;;;17.77;60.36
3082;BME280;1551;51.046;7.010;2023-05-29T00:03:25;101330.09;;;17.75;60.50
3082;BME280;1551;51.046;7.010;2023-05-29T00:06:14;101335.22;;;17.78;60.47
3082;BME280;1551;51.046;7.010;2023-05-29T00:09:03;101331.09;;;17.71;60.44
3082;BME280;1551;51.046;7.010;2023-05-29T00:11:53;101329.59;;;17.64;60.43
3082;BME280;1551;51.046;7.010;2023-05-29T00:14:42;101325.41;;;17.58;60.81
3082;BME280;1551;51.046;7.010;2023-05-29T00:17:31;101336.81;;;17.53;61.29
3082;BME280;1551;51.046;7.010;2023-05-29T00:20:23;101340.28;;;17.52;61.17
3082;BME280;1551;51.046;7.010;2023-05-29T00:23:12;101332.63;;;17.47;61.03
3082;BME280;1551;51.046;7.010;2023-05-29T00:26:02;101334.47;;;17.44;61.25
3082;BME280;1551;51.046;7.010;2023-05-29T00:28:52;101334.59;;;17.38;61.26
3082;BME280;1551;51.046;7.010;2023-05-29T00:31:41;101337.38;;;17.32;61.63
3082;BME280;1551;51.046;7.010;2023-05-29T00:34:30;101339.16;;;17.30;61.49
3082;BME280;1551;51.046;7.010;2023-05-29T00:37:18;101335.59;;;17.34;61.52
3082;BME280;1551;51.046;7.010;2023-05-29T00:40:10;101344.34;;;17.30;61.14
3082;BME280;1551;51.046;7.010;2023-05-29T00:42:59;101343.06;;;17.13;61.88
3082;BME280;1551;51.046;7.010;2023-05-29T00:45:48;101340.41;;;17.15;61.69
3082;BME280;1551;51.046;7.010;2023-05-29T00:48:38;101332.72;;;17.13;62.40
3082;BME280;1551;51.046;7.010;2023-05-29T00:51:30;101344.72;;;17.14;62.62
3082;BME280;1551;51.046;7.010;2023-05-29T00:54:23;101344.94;;;17.07;62.18
3082;BME280;1551;51.046;7.010;2023-05-29T00:57:14;101349.47;;;16.99;62.28
3082;BME280;1551;51.046;7.010;2023-05-29T01:00:06;101345.09;;;17.01;61.75
3082;BME280;1551;51.046;7.010;2023-05-29T01:03:04;101352.84;;;17.01;62.20
3082;BME280;1551;51.046;7.010;2023-05-29T01:05:53;101336.91;;;16.85;62.30
3082;BME280;1551;51.046;7.010;2023-05-29T01:08:42;101357.81;;;16.76;63.02
3082;BME280;1551;51.046;7.010;2023-05-29T01:11:45;101358.56;;;16.80;63.11
3082;BME280;1551;51.046;7.010;2023-05-29T01:14:57;101349.31;;;16.71;63.36
3082;BME280;1551;51.046;7.010;2023-05-29T01:21:25;101353.69;;;16.68;63.35
3082;BME280;1551;51.046;7.010;2023-05-29T01:27:34;101350.63;;;16.50;63.28
3082;BME280;1551;51.046;7.010;2023-05-29T01:30:24;101363.53;;;16.54;63.18
3082;BME280;1551;51.046;7.010;2023-05-29T01:33:14;101353.63;;;16.34;63.43
3082;BME280;1551;51.046;7.010;2023-05-29T01:36:05;101370.97;;;16.29;63.45
3082;BME280;1551;51.046;7.010;2023-05-29T01:38:56;101367.75;;;16.19;63.36
3082;BME280;1551;51.046;7.010;2023-05-29T01:41:47;101369.63;;;16.13;63.62
3082;BME280;1551;51.046;7.010;2023-05-29T01:44:37;101375.56;;;16.16;63.16
3082;BME280;1551;51.046;7.010;2023-05-29T01:47:26;101372.88;;;16.21;62.78
3082;BME280;1551;51.046;7.010;2023-05-29T01:50:17;101382.53;;;16.13;63.00
3082;BME280;1551;51.046;7.010;2023-05-29T01:53:06;101387.06;;;16.02;62.58
3082;BME280;1551;51.046;7.010;2023-05-29T01:55:55;101393.22;;;15.95;63.19
3082;BME280;1551;51.046;7.010;2023-05-29T01:58:45;101380.47;;;15.89;62.74
3082;BME280;1551;51.046;7.010;2023-05-29T02:01:38;101381.34;;;15.88;63.29
3082;BME280;1551;51.046;7.010;2023-05-29T02:04:27;101389.97;;;15.85;62.68
3082;BME280;1551;51.046;7.010;2023-05-29T02:07:16;101390.03;;;15.83;62.81
3082;BME280;1551;51.046;7.010;2023-05-29T02:10:06;101380.72;;;15.76;62.90
3082;BME280;1551;51.046;7.010;2023-05-29T02:12:56;101403.91;;;15.78;62.97
3082;BME280;1551;51.046;7.010;2023-05-29T02:15:46;101391.91;;;15.75;63.51
3082;BME280;1551;51.046;7.010;2023-05-29T02:18:35;101408.44;;;15.67;63.24
3082;BME280;1551;51.046;7.010;2023-05-29T02:21:24;101423.22;;;15.57;64.04
3082;BME280;1551;51.046;7.010;2023-05-29T02:24:14;101421.75;;;15.46;64.23
3082;BME280;1551;51.046;7.010;2023-05-29T02:27:03;101414.94;;;15.40;64.43
3082;BME280;1551;51.046;7.010;2023-05-29T02:29:52;101417.63;;;15.34;64.39
3082;BME280;1551;51.046;7.010;2023-05-29T02:32:44;101421.19;;;15.27;64.55
3082;BME280;1551;51.046;7.010;2023-05-29T02:35:33;101420.41;;;15.24;64.91
3082;BME280;1551;51.046;7.010;2023-05-29T02:38:22;101419.72;;;15.14;64.74
3082;BME280;1551;51.046;7.010;2023-05-29T02:41:12;101417.22;;;15.09;65.06
3082;BME280;1551;51.046;7.010;2023-05-29T02:44:01;101425.03;;;15.05;65.11
3082;BME280;1551;51.046;7.010;2023-05-29T02:46:50;101423.34;;;15.01;65.63
3082;BME280;1551;51.046;7.010;2023-05-29T02:49:39;101420.88;;;14.93;66.23
3082;BME280;1551;51.046;7.010;2023-05-29T02:52:28;101429.56;;;14.89;66.29
3082;BME280;1551;51.046;7.010;2023-05-29T02:55:19;101424.50;;;14.82;67.13
3082;BME280;1551;51.046;7.010;2023-05-29T02:58:08;101424.47;;;14.85;67.30
3082;BME280;1551;51.046;7.010;2023-05-29T03:00:56;101417.63;;;14.82;67.26
3082;BME280;1551;51.046;7.010;2023-05-29T03:03:45;101433.22;;;14.75;67.83
3082;BME280;1551;51.046;7.010;2023-05-29T03:06:35;101423.88;;;14.68;67.96
3082;BME280;1551;51.046;7.010;2023-05-29T03:09:25;101429.88;;;14.68;68.02
3082;BME280;1551;51.046;7.010;2023-05-29T03:12:14;101437.63;;;14.70;67.97
3082;BME280;1551;51.046;7.010;2023-05-29T03:15:04;101437.72;;;14.62;68.04
3082;BME280;1551;51.046;7.010;2023-05-29T03:17:54;101436.03;;;14.60;68.44
3082;BME280;1551;51.046;7.010;2023-05-29T03:20:48;101440.31;;;14.61;68.45
3082;BME280;1551;51.046;7.010;2023-05-29T03:23:38;101433.47;;;14.60;68.63
3082;BME280;1551;51.046;7.010;2023-05-29T03:26:27;101442.94;;;14.56;68.64
3082;BME280;1551;51.046;7.010;2023-05-29T03:29:17;101442.13;;;14.54;69.11
3082;BME280;1551;51.046;7.010;2023-05-29T03:32:07;101447.28;;;14.54;68.91
3082;BME280;1551;51.046;7.010;2023-05-29T03:34:57;101442.22;;;14.48;68.18
3082;BME280;1551;51.046;7.010;2023-05-29T03:37:47;101434.50;;;14.48;68.94
3082;BME280;1551;51.046;7.010;2023-05-29T03:40:36;101436.28;;;14.43;68.64
3082;BME280;1551;51.046;7.010;2023-05-29T03:43:26;101438.03;;;14.39;68.33
3082;BME280;1551;51.046;7.010;2023-05-29T03:46:16;101438.09;;;14.35;68.44
3082;BME280;1551;51.046;7.010;2023-05-29T03:49:05;101436.38;;;14.35;68.76
3082;BME280;1551;51.046;7.010;2023-05-29T03:51:56;101438.09;;;14.36;68.50
3082;BME280;1551;51.046;7.010;2023-05-29T03:54:47;101453.56;;;14.33;68.40
3082;BME280;1551;51.046;7.010;2023-05-29T03:57:36;101446.75;;;14.31;68.60
3082;BME280;1551;51.046;7.010;2023-05-29T04:00:25;101452.03;;;14.17;68.12
3082;BME280;1551;51.046;7.010;2023-05-29T04:03:15;101454.66;;;14.13;68.79
3082;BME280;1551;51.046;7.010;2023-05-29T04:06:05;101458.03;;;14.16;69.20
3082;BME280;1551;51.046;7.010;2023-05-29T04:08:54;101456.31;;;14.17;69.20
3082;BME280;1551;51.046;7.010;2023-05-29T04:11:43;101460.59;;;14.19;69.33
3082;BME280;1551;51.046;7.010;2023-05-29T04:14:34;101449.41;;;14.22;69.57
3082;BME280;1551;51.046;7.010;2023-05-29T04:17:23;101457.94;;;14.27;69.65
3082;BME280;1551;51.046;7.010;2023-05-29T04:20:12;101457.03;;;14.29;69.01
3082;BME280;1551;51.046;7.010;2023-05-29T04:23:01;101459.53;;;14.38;69.03
3082;BME280;1551;51.046;7.010;2023-05-29T04:25:50;101461.19;;;14.42;69.13
3082;BME280;1551;51.046;7.010;2023-05-29T04:28:44;101461.09;;;14.47;69.32
3082;BME280;1551;51.046;7.010;2023-05-29T04:31:34;101466.28;;;14.45;69.09
3082;BME280;1551;51.046;7.010;2023-05-29T04:34:26;101469.69;;;14.48;69.46
3082;BME280;1551;51.046;7.010;2023-05-29T04:37:15;101472.31;;;14.46;69.37
3082;BME280;1551;51.046;7.010;2023-05-29T04:40:07;101482.59;;;14.44;69.02
3082;BME280;1551;51.046;7.010;2023-05-29T04:42:59;101485.91;;;14.56;69.36
3082;BME280;1551;51.046;7.010;2023-05-29T04:46:05;101494.53;;;14.53;69.66
3082;BME280;1551;51.046;7.010;2023-05-29T04:48:57;101486.75;;;14.58;69.19
3082;BME280;1551;51.046;7.010;2023-05-29T04:51:46;101491.97;;;14.53;69.29
3082;BME280;1551;51.046;7.010;2023-05-29T04:54:35;101493.56;;;14.59;69.66
3082;BME280;1551;51.046;7.010;2023-05-29T04:57:24;101491.03;;;14.57;69.70
3082;BME280;1551;51.046;7.010;2023-05-29T05:00:15;101489.91;;;14.75;69.50
3082;BME280;1551;51.046;7.010;2023-05-29T05:03:06;101484.72;;;14.79;68.21
3082;BME280;1551;51.046;7.010;2023-05-29T05:05:56;101494.91;;;14.87;68.72
3082;BME280;1551;51.046;7.010;2023-05-29T05:08:46;101493.88;;;14.97;67.97
3082;BME280;1551;51.046;7.010;2023-05-29T05:11:35;101492.88;;;15.07;67.42
3082;BME280;1551;51.046;7.010;2023-05-29T05:14:25;101498.88;;;15.07;67.27
3082;BME280;1551;51.046;7.010;2023-05-29T05:17:15;101506.56;;;15.12;67.40
3082;BME280;1551;51.046;7.010;2023-05-29T05:20:05;101509.00;;;15.21;66.73
3082;BME280;1551;51.046;7.010;2023-05-29T05:22:55;101505.41;;;15.30;66.89
3082;BME280;1551;51.046;7.010;2023-05-29T05:25:45;101504.53;;;15.29;66.71
3082;BME280;1551;51.046;7.010;2023-05-29T05:28:34;101502.84;;;15.28;65.70
3082;BME280;1551;51.046;7.010;2023-05-29T05:31:24;101503.69;;;15.30;65.66
3082;BME280;1551;51.046;7.010;2023-05-29T05:34:13;101514.69;;;15.40;64.84
3082;BME280;1551;51.046;7.010;2023-05-29T05:37:04;101513.72;;;15.48;65.70
3082;BME280;1551;51.046;7.010;2023-05-29T05:39:53;101520.22;;;15.70;65.47
3082;BME280;1551;51.046;7.010;2023-05-29T05:42:43;101525.34;;;15.72;64.51
3082;BME280;1551;51.046;7.010;2023-05-29T05:45:34;101525.25;;;15.76;64.74
3082;BME280;1551;51.046;7.010;2023-05-29T05:48:24;101530.50;;;15.72;63.98
3082;BME280;1551;51.046;7.010;2023-05-29T05:51:13;101524.22;;;15.85;63.57
3082;BME280;1551;51.046;7.010;2023-05-29T05:54:04;101511.38;;;15.83;63.17
3082;BME280;1551;51.046;7.010;2023-05-29T05:56:54;101520.66;;;15.94;63.30
3082;BME280;1551;51.046;7.010;2023-05-29T05:59:43;101519.66;;;15.99;62.93
3082;BME280;1551;51.046;7.010;2023-05-29T06:02:32;101516.25;;;15.97;63.01
3082;BME280;1551;51.046;7.010;2023-05-29T06:05:21;101518.66;;;16.06;62.46
3082;BME280;1551;51.046;7.010;2023-05-29T06:08:10;101520.88;;;16.26;62.61
3082;BME280;1551;51.046;7.010;2023-05-29T06:10:59;101531.91;;;16.32;62.37
3082;BME280;1551;51.046;7.010;2023-05-29T06:13:48;101529.53;;;16.23;61.41
3082;BME280;1551;51.046;7.010;2023-05-29T06:16:43;101529.13;;;16.43;60.92
3082;BME280;1551;51.046;7.010;2023-05-29T06:19:33;101533.66;;;16.32;61.44
3082;BME280;1551;51.046;7.010;2023-05-29T06:22:23;101538.81;;;16.33;61.16
3082;BME280;1551;51.046;7.010;2023-05-29T06:25:12;101533.28;;;16.52;61.28
3082;BME280;1551;51.046;7.010;2023-05-29T06:28:02;101544.91;;;16.72;60.62
3082;BME280;1551;51.046;7.010;2023-05-29T06:30:54;101540.25;;;16.88;61.03
3082;BME280;1551;51.046;7.010;2023-05-29T06:33:44;101550.06;;;17.10;60.11
3082;BME280;1551;51.046;7.010;2023-05-29T06:36:33;101540.31;;;17.23;59.47
3082;BME280;1551;51.046;7.010;2023-05-29T06:39:24;101541.88;;;17.29;58.69
3082;BME280;1551;51.046;7.010;2023-05-29T06:42:14;101545.66;;;17.51;58.60
3082;BME280;1551;51.046;7.010;2023-05-29T06:45:05;101549.09;;;17.85;58.09
3082;BME280;1551;51.046;7.010;2023-05-29T06:47:56;101546.13;;;17.99;57.69
3082;BME280;1551;51.046;7.010;2023-05-29T06:50:45;101549.66;;;18.28;57.05
3082;BME280;1551;51.046;7.010;2023-05-29T06:54:09;101537.88;;;18.47;56.07
3082;BME280;1551;51.046;7.010;2023-05-29T06:57:01;101541.53;;;18.70;55.40
3082;BME280;1551;51.046;7.010;2023-05-29T06:59:49;101549.13;;;18.76;54.99
3082;BME280;1551;51.046;7.010;2023-05-29T07:02:40;101550.63;;;18.84;54.21
3082;BME280;1551;51.046;7.010;2023-05-29T07:05:29;101551.31;;;18.89;54.41
3082;BME280;1551;51.046;7.010;2023-05-29T07:08:18;101546.72;;;18.99;54.74
3082;BME280;1551;51.046;7.010;2023-05-29T07:11:07;101546.19;;;19.42;53.69
3082;BME280;1551;51.046;7.010;2023-05-29T07:13:56;101544.13;;;19.77;52.55
3082;BME280;1551;51.046;7.010;2023-05-29T07:16:48;101541.25;;;20.10;50.94
3082;BME280;1551;51.046;7.010;2023-05-29T07:19:37;101539.66;;;20.30;50.80
3082;BME280;1551;51.046;7.010;2023-05-29T07:22:28;101551.53;;;20.61;50.04
3082;BME280;1551;51.046;7.010;2023-05-29T07:25:17;101551.50;;;20.84;49.91
3082;BME280;1551;51.046;7.010;2023-05-29T07:28:05;101547.44;;;20.77;50.01
3082;BME280;1551;51.046;7.010;2023-05-29T07:30:55;101548.84;;;20.85;50.08
3082;BME280;1551;51.046;7.010;2023-05-29T07:33:44;101546.03;;;20.90;49.74
3082;BME280;1551;51.046;7.010;2023-05-29T07:36:34;101552.81;;;20.94;49.03
3082;BME280;1551;51.046;7.010;2023-05-29T07:39:27;101547.53;;;21.18;48.91
3082;BME280;1551;51.046;7.010;2023-05-29T07:42:16;101556.44;;;21.55;47.88
3082;BME280;1551;51.046;7.010;2023-05-29T07:45:05;101559.97;;;21.74;46.90
3082;BME280;1551;51.046;7.010;2023-05-29T07:47:55;101553.38;;;21.45;47.39
3082;BME280;1551;51.046;7.010;2023-05-29T07:50:44;101558.16;;;21.56;48.05
3082;BME280;1551;51.046;7.010;2023-05-29T07:53:33;101561.66;;;21.55;47.82
3082;BME280;1551;51.046;7.010;2023-05-29T07:56:22;101566.53;;;21.84;47.60
3082;BME280;1551;51.046;7.010;2023-05-29T07:59:11;101570.94;;;22.02;46.67
3082;BME280;1551;51.046;7.010;2023-05-29T08:02:00;101571.16;;;22.18;46.56
3082;BME280;1551;51.046;7.010;2023-05-29T08:05:12;101572.59;;;22.43;46.59
3082;BME280;1551;51.046;7.010;2023-05-29T08:08:02;101574.00;;;22.50;46.03
3082;BME280;1551;51.046;7.010;2023-05-29T08:10:51;101580.84;;;22.53;45.95
3082;BME280;1551;51.046;7.010;2023-05-29T08:13:40;101574.75;;;22.73;45.55
3082;BME280;1551;51.046;7.010;2023-05-29T08:16:31;101580.38;;;22.82;45.74
3082;BME280;1551;51.046;7.010;2023-05-29T08:19:20;101578.41;;;22.69;45.31
3082;BME280;1551;51.046;7.010;2023-05-29T08:22:12;101581.22;;;22.83;45.62
3082;BME280;1551;51.046;7.010;2023-05-29T08:25:02;101585.88;;;23.31;44.54
3082;BME280;1551;51.046;7.010;2023-05-29T08:27:52;101581.50;;;23.31;43.63
3082;BME280;1551;51.046;7.010;2023-05-29T08:30:41;101576.56;;;22.89;43.96
3082;BME280;1551;51.046;7.010;2023-05-29T08:33:29;101578.66;;;23.18;43.38
3082;BME280;1551;51.046;7.010;2023-05-29T08:36:19;101580.56;;;23.15;43.99
3082;BME280;1551;51.046;7.010;2023-05-29T08:39:11;101577.88;;;22.98;44.20
3082;BME280;1551;51.046;7.010;2023-05-29T08:42:04;101577.22;;;23.30;44.15
3082;BME280;1551;51.046;7.010;2023-05-29T08:44:56;101569.97;;;23.54;43.45
3082;BME280;1551;51.046;7.010;2023-05-29T08:47:51;101568.53;;;23.30;43.42
3082;BME280;1551;51.046;7.010;2023-05-29T08:50:44;101589.09;;;23.54;43.70
3082;BME280;1551;51.046;7.010;2023-05-29T08:53:37;101576.88;;;23.55;43.35
3082;BME280;1551;51.046;7.010;2023-05-29T08:56:26;101582.63;;;23.61;43.33
3082;BME280;1551;51.046;7.010;2023-05-29T08:59:16;101585.72;;;23.34;43.75
3082;BME280;1551;51.046;7.010;2023-05-29T09:02:06;101586.72;;;23.84;43.25
3082;BME280;1551;51.046;7.010;2023-05-29T09:04:55;101575.78;;;23.93;42.89
3082;BME280;1551;51.046;7.010;2023-05-29T09:07:45;101579.41;;;23.90;42.80
3082;BME280;1551;51.046;7.010;2023-05-29T09:10:35;101577.47;;;23.94;42.22
3082;BME280;1551;51.046;7.010;2023-05-29T09:13:24;101579.94;;;24.14;42.60
3082;BME280;1551;51.046;7.010;2023-05-29T09:16:16;101578.25;;;24.13;41.98
3082;BME280;1551;51.046;7.010;2023-05-29T09:19:06;101580.47;;;24.21;41.89
3082;BME280;1551;51.046;7.010;2023-05-29T09:22:05;101573.94;;;24.45;41.69
3082;BME280;1551;51.046;7.010;2023-05-29T09:24:54;101580.09;;;24.59;41.18
3082;BME280;1551;51.046;7.010;2023-05-29T09:27:43;101583.66;;;24.58;40.97
3082;BME280;1551;51.046;7.010;2023-05-29T09:30:39;101584.53;;;24.75;40.95
3082;BME280;1551;51.046;7.010;2023-05-29T09:33:28;101582.59;;;24.78;41.29
3082;BME280;1551;51.046;7.010;2023-05-29T09:36:24;101587.50;;;24.69;40.30
3082;BME280;1551;51.046;7.010;2023-05-29T09:39:14;101586.09;;;24.94;40.48
3082;BME280;1551;51.046;7.010;2023-05-29T09:42:04;101580.91;;;25.24;39.59
3082;BME280;1551;51.046;7.010;2023-05-29T09:44:54;101592.72;;;25.47;40.25
3082;BME280;1551;51.046;7.010;2023-05-29T09:47:43;101589.25;;;25.31;40.24
3082;BME280;1551;51.046;7.010;2023-05-29T09:50:33;101590.03;;;25.17;39.83
3082;BME280;1551;51.046;7.010;2023-05-29T09:53:24;101590.09;;;25.31;40.26
3082;BME280;1551;51.046;7.010;2023-05-29T09:56:15;101577.22;;;25.58;39.85
3082;BME280;1551;51.046;7.010;2023-05-29T09:59:05;101586.19;;;25.54;40.31
3082;BME280;1551;51.046;7.010;2023-05-29T10:02:03;101581.13;;;25.51;39.76
3082;BME280;1551;51.046;7.010;2023-05-29T10:05:00;101570.16;;;25.28;40.33
3082;BME280;1551;51.046;7.010;2023-05-29T10:07:53;101581.47;;;25.45;40.43
3082;BME280;1551;51.046;7.010;2023-05-29T10:10:49;101580.41;;;25.63;39.57
3082;BME280;1551;51.046;7.010;2023-05-29T10:13:44;101582.22;;;25.76;39.19
3082;BME280;1551;51.046;7.010;2023-05-29T10:16:41;101577.59;;;26.24;39.03
3082;BME280;1551;51.046;7.010;2023-05-29T10:19:32;101583.53;;;26.41;38.75
3082;BME280;1551;51.046;7.010;2023-05-29T10:22:24;101576.69;;;26.25;38.14
3082;BME280;1551;51.046;7.010;2023-05-29T10:25:14;101584.94;;;25.75;38.53
3082;BME280;1551;51.046;7.010;2023-05-29T10:28:06;101589.25;;;25.46;38.84
3082;BME280;1551;51.046;7.010;2023-05-29T10:31:08;101589.75;;;25.53;39.11
3082;BME280;1551;51.046;7.010;2023-05-29T10:37:12;101585.94;;;26.02;38.74
3082;BME280;1551;51.046;7.010;2023-05-29T10:40:08;101584.28;;;26.29;37.66
3082;BME280;1551;51.046;7.010;2023-05-29T10:43:03;101578.81;;;26.60;37.04
3082;BME280;1551;51.046;7.010;2023-05-29T10:45:53;101576.84;;;26.50;37.35
3082;BME280;1551;51.046;7.010;2023-05-29T10:48:42;101577.97;;;26.60;37.07
3082;BME280;1551;51.046;7.010;2023-05-29T10:51:32;101578.50;;;27.20;36.46
3082;BME280;1551;51.046;7.010;2023-05-29T10:54:23;101587.47;;;26.77;36.99
3082;BME280;1551;51.046;7.010;2023-05-29T10:57:13;101583.13;;;27.16;36.73
3082;BME280;1551;51.046;7.010;2023-05-29T11:00:06;101585.47;;;27.60;35.91
3082;BME280;1551;51.046;7.010;2023-05-29T11:03:04;101578.66;;;27.31;36.38
3082;BME280;1551;51.046;7.010;2023-05-29T11:06:04;101580.28;;;27.46;36.52
3082;BME280;1551;51.046;7.010;2023-05-29T11:08:59;101572.03;;;27.77;35.59
3082;BME280;1551;51.046;7.010;2023-05-29T11:12:11;101577.84;;;27.43;35.99
3082;BME280;1551;51.046;7.010;2023-05-29T11:15:04;101569.34;;;27.40;36.54
3082;BME280;1551;51.046;7.010;2023-05-29T11:17:54;101575.59;;;27.76;36.40
3082;BME280;1551;51.046;7.010;2023-05-29T11:20:54;101562.03;;;27.31;36.44
3082;BME280;1551;51.046;7.010;2023-05-29T11:23:47;101555.28;;;27.00;36.98
3082;BME280;1551;51.046;7.010;2023-05-29T11:26:37;101553.78;;;27.22;36.74
3082;BME280;1551;51.046;7.010;2023-05-29T11:29:28;101554.84;;;26.93;37.16
3082;BME280;1551;51.046;7.010;2023-05-29T11:32:17;101555.44;;;27.11;36.37
3082;BME280;1551;51.046;7.010;2023-05-29T11:35:10;101544.31;;;27.47;36.82
3082;BME280;1551;51.046;7.010;2023-05-29T11:38:00;101550.75;;;27.68;36.45
3082;BME280;1551;51.046;7.010;2023-05-29T11:40:50;101547.38;;;27.53;36.52
3082;BME280;1551;51.046;7.010;2023-05-29T11:43:39;101562.03;;;27.82;35.72
3082;BME280;1551;51.046;7.010;2023-05-29T11:46:28;101554.38;;;28.17;35.28
3082;BME280;1551;51.046;7.010;2023-05-29T11:49:28;101550.69;;;28.07;34.88
3082;BME280;1551;51.046;7.010;2023-05-29T11:52:17;101547.91;;;27.83;34.83
3082;BME280;1551;51.046;7.010;2023-05-29T11:55:11;101553.41;;;28.18;34.90
3082;BME280;1551;51.046;7.010;2023-05-29T11:58:04;101557.38;;;28.62;34.52
3082;BME280;1551;51.046;7.010;2023-05-29T12:00:53;101548.03;;;28.81;34.18
3082;BME280;1551;51.046;7.010;2023-05-29T12:03:42;101551.75;;;28.05;34.68
3082;BME280;1551;51.046;7.010;2023-05-29T12:06:33;101541.81;;;27.83;34.90
3082;BME280;1551;51.046;7.010;2023-05-29T12:09:27;101543.22;;;28.01;34.38
3082;BME280;1551;51.046;7.010;2023-05-29T12:12:17;101536.03;;;27.90;33.91
3082;BME280;1551;51.046;7.010;2023-05-29T12:15:07;101536.78;;;27.80;34.00
3082;BME280;1551;51.046;7.010;2023-05-29T12:17:57;101544.78;;;28.16;35.36
3082;BME280;1551;51.046;7.010;2023-05-29T12:20:46;101542.25;;;28.02;33.91
3082;BME280;1551;51.046;7.010;2023-05-29T12:23:37;101535.41;;;28.00;33.72
3082;BME280;1551;51.046;7.010;2023-05-29T12:26:26;101554.25;;;27.93;33.67
3082;BME280;1551;51.046;7.010;2023-05-29T12:29:15;101548.91;;;28.08;33.53
3082;BME280;1551;51.046;7.010;2023-05-29T12:32:09;101536.75;;;27.92;33.23
3082;BME280;1551;51.046;7.010;2023-05-29T12:34:59;101545.75;;;28.03;33.65
3082;BME280;1551;51.046;7.010;2023-05-29T12:40:38;101538.38;;;28.20;34.64
3082;BME280;1551;51.046;7.010;2023-05-29T12:43:27;101538.91;;;28.00;33.86
3082;BME280;1551;51.046;7.010;2023-05-29T12:46:17;101551.22;;;28.25;33.83
3082;BME280;1551;51.046;7.010;2023-05-29T12:49:16;101549.00;;;28.19;33.89
3082;BME280;1551;51.046;7.010;2023-05-29T12:52:06;101550.44;;;27.98;34.42
3082;BME280;1551;51.046;7.010;2023-05-29T12:55:01;101554.44;;;27.90;34.18
3082;BME280;1551;51.046;7.010;2023-05-29T12:57:50;101547.28;;;27.92;33.91
3082;BME280;1551;51.046;7.010;2023-05-29T13:00:41;101549.41;;;27.75;34.29
3082;BME280;1551;51.046;7.010;2023-05-29T13:03:31;101544.34;;;27.59;34.30
3082;BME280;1551;51.046;7.010;2023-05-29T13:06:20;101547.09;;;27.95;33.92
3082;BME280;1551;51.046;7.010;2023-05-29T13:09:09;101549.50;;;27.86;34.17
3082;BME280;1551;51.046;7.010;2023-05-29T13:11:57;101548.34;;;27.90;33.91
3082;BME280;1551;51.046;7.010;2023-05-29T13:14:46;101540.22;;;27.55;34.26
3082;BME280;1551;51.046;7.010;2023-05-29T13:17:36;101553.03;;;27.08;34.86
3082;BME280;1551;51.046;7.010;2023-05-29T13:20:25;101556.31;;;27.51;34.85
3082;BME280;1551;51.046;7.010;2023-05-29T13:23:14;101545.91;;;27.49;33.88
3082;BME280;1551;51.046;7.010;2023-05-29T13:26:04;101548.13;;;27.28;34.00
3082;BME280;1551;51.046;7.010;2023-05-29T13:28:54;101554.69;;;27.36;34.56
3082;BME280;1551;51.046;7.010;2023-05-29T13:31:43;101554.31;;;27.27;34.18
3082;BME280;1551;51.046;7.010;2023-05-29T13:34:32;101554.41;;;27.53;34.00
3082;BME280;1551;51.046;7.010;2023-05-29T13:37:21;101533.72;;;27.73;33.98
3082;BME280;1551;51.046;7.010;2023-05-29T13:40:10;101537.16;;;27.49;34.10
3082;BME280;1551;51.046;7.010;2023-05-29T13:43:00;101530.22;;;26.68;35.34
3082;BME280;1551;51.046;7.010;2023-05-29T13:45:49;101537.56;;;26.48;35.98
3082;BME280;1551;51.046;7.010;2023-05-29T13:48:38;101541.00;;;26.77;35.90
3082;BME280;1551;51.046;7.010;2023-05-29T13:51:27;101539.94;;;26.94;35.89
3082;BME280;1551;51.046;7.010;2023-05-29T13:54:16;101542.88;;;27.28;35.09
3082;BME280;1551;51.046;7.010;2023-05-29T13:57:06;101503.28;;;26.78;34.98
3082;BME280;1551;51.046;7.010;2023-05-29T13:59:55;101543.75;;;27.15;34.88
3082;BME280;1551;51.046;7.010;2023-05-29T14:02:44;101532.47;;;26.59;35.15
3082;BME280;1551;51.046;7.010;2023-05-29T14:05:33;101527.38;;;26.71;35.32
3082;BME280;1551;51.046;7.010;2023-05-29T14:08:22;101526.06;;;26.63;35.29
3082;BME280;1551;51.046;7.010;2023-05-29T14:11:11;101529.75;;;26.47;34.91
3082;BME280;1551;51.046;7.010;2023-05-29T14:14:00;101532.63;;;26.30;35.82
3082;BME280;1551;51.046;7.010;2023-05-29T14:16:50;101528.22;;;26.30;36.22
3082;BME280;1551;51.046;7.010;2023-05-29T14:19:40;101520.63;;;26.26;35.43
3082;BME280;1551;51.046;7.010;2023-05-29T14:22:29;101522.59;;;26.22;36.06
3082;BME280;1551;51.046;7.010;2023-05-29T14:25:19;101527.44;;;26.42;36.01
3082;BME280;1551;51.046;7.010;2023-05-29T14:28:08;101522.97;;;26.16;35.68
3082;BME280;1551;51.046;7.010;2023-05-29T14:30:58;101522.00;;;25.89;35.76
3082;BME280;1551;51.046;7.010;2023-05-29T14:33:46;101501.41;;;25.97;36.03
3082;BME280;1551;51.046;7.010;2023-05-29T14:36:36;101515.81;;;26.04;36.01
3082;BME280;1551;51.046;7.010;2023-05-29T14:39:25;101521.34;;;25.71;36.62
3082;BME280;1551;51.046;7.010;2023-05-29T14:42:14;101522.16;;;25.58;37.44
3082;BME280;1551;51.046;7.010;2023-05-29T14:45:05;101515.75;;;25.48;36.56
3082;BME280;1551;51.046;7.010;2023-05-29T14:47:54;101526.47;;;25.43;37.41
3082;BME280;1551;51.046;7.010;2023-05-29T14:50:43;101539.22;;;25.65;37.92
3082;BME280;1551;51.046;7.010;2023-05-29T14:53:32;101503.56;;;25.47;36.98
3082;BME280;1551;51.046;7.010;2023-05-29T14:56:21;101523.25;;;25.54;37.16
3082;BME280;1551;51.046;7.010;2023-05-29T14:59:10;101517.84;;;25.71;37.32
3082;BME280;1551;51.046;7.010;2023-05-29T15:01:59;101518.31;;;25.77;37.05
3082;BME280;1551;51.046;7.010;2023-05-29T15:04:49;101513.06;;;25.63;37.11
3082;BME280;1551;51.046;7.010;2023-05-29T15:07:38;101514.09;;;25.31;37.96
3082;BME280;1551;51.046;7.010;2023-05-29T15:10:27;101520.91;;;25.49;37.75
3082;BME280;1551;51.046;7.010;2023-05-29T15:13:16;101512.22;;;25.33;37.83
3082;BME280;1551;51.046;7.010;2023-05-29T15:16:06;101516.97;;;24.97;38.09
3082;BME280;1551;51.046;7.010;2023-05-29T15:18:55;101514.25;;;24.67;38.37
3082;BME280;1551;51.046;7.010;2023-05-29T15:21:44;101517.22;;;24.61;38.53
3082;BME280;1551;51.046;7.010;2023-05-29T15:24:33;101511.78;;;24.33;39.13
3082;BME280;1551;51.046;7.010;2023-05-29T15:27:22;101519.31;;;24.06;39.09